Time;durP1;ratioP1;P1;durP2;ratioP2;P2;SDS_P1;SDS_P2;PMS_P1;PMS_P2;Temp;Humidity;BMP_temperature;BMP_pressure;BME280_temperature;BME280_humidity;BME280_pressure;Samples;Min_cycle;Max_cycle;Signal;HPM_P1;HPM_P2
2022/12/31 00:01:09;;;;;;;41.97;5.18;;;;;;;;;;4942183;28;20046;-69
2022/12/31 00:03:35;;;;;;;36.80;4.97;;;;;;;;;;4942035;28;20047;-69
2022/12/31 00:06:02;;;;;;;34.20;4.75;;;;;;;;;;4942173;28;20156;-68
2022/12/31 00:08:28;;;;;;;34.05;4.75;;;;;;;;;;4941451;28;20497;-68
2022/12/31 00:10:53;;;;;;;42.67;5.80;;;;;;;;;;4926788;28;20026;-68
2022/12/31 00:13:18;;;;;;;45.03;4.90;;;;;;;;;;4942567;28;20039;-69
2022/12/31 00:15:44;;;;;;;31.38;4.18;;;;;;;;;;4924911;28;20046;-67
2022/12/31 00:18:09;;;;;;;31.42;4.25;;;;;;;;;;4942166;28;20700;-69
2022/12/31 00:20:38;;;;;;;41.03;6.10;;;;;;;;;;4941970;28;20179;-68
2022/12/31 00:23:03;;;;;;;38.33;5.28;;;;;;;;;;4942212;28;20063;-69
2022/12/31 00:25:29;;;;;;;39.35;5.10;;;;;;;;;;4942202;28;20057;-70
2022/12/31 00:27:54;;;;;;;44.45;5.10;;;;;;;;;;4924947;28;20038;-69
2022/12/31 00:30:22;;;;;;;38.72;5.10;;;;;;;;;;4925004;28;20050;-68
2022/12/31 00:32:51;;;;;;;47.08;6.05;;;;;;;;;;4941774;28;20039;-70
2022/12/31 00:35:19;;;;;;;42.55;5.15;;;;;;;;;;4941901;28;20147;-70
2022/12/31 00:37:44;;;;;;;54.88;5.85;;;;;;;;;;4908557;28;20045;-68
2022/12/31 00:40:13;;;;;;;56.90;6.55;;;;;;;;;;4908305;28;20220;-69
2022/12/31 00:42:38;;;;;;;52.40;6.97;;;;;;;;;;4941679;28;20035;-68
2022/12/31 00:45:04;;;;;;;46.90;5.80;;;;;;;;;;4942398;28;20077;-69
2022/12/31 00:47:32;;;;;;;55.95;6.43;;;;;;;;;;4984401;28;20561;-70
2022/12/31 00:49:58;;;;;;;55.85;7.55;;;;;;;;;;4925180;28;20040;-69
2022/12/31 00:52:23;;;;;;;52.45;6.05;;;;;;;;;;4971797;28;20656;-70
2022/12/31 00:54:54;;;;;;;54.13;6.38;;;;;;;;;;4986967;28;20047;-70
2022/12/31 00:57:20;;;;;;;48.38;5.68;;;;;;;;;;4988611;28;20183;-69
2022/12/31 00:59:47;;;;;;;49.70;5.75;;;;;;;;;;4924072;28;20039;-67
2022/12/31 01:02:13;;;;;;;35.95;5.10;;;;;;;;;;4925540;28;20036;-68
2022/12/31 01:04:40;;;;;;;51.13;5.38;;;;;;;;;;4925110;28;20596;-67
2022/12/31 01:07:05;;;;;;;49.00;5.53;;;;;;;;;;4987404;28;20215;-67
2022/12/31 01:09:30;;;;;;;43.22;6.32;;;;;;;;;;4983710;28;20046;-69
2022/12/31 01:11:58;;;;;;;48.88;6.40;;;;;;;;;;4908765;28;20115;-67
2022/12/31 01:14:24;;;;;;;39.33;5.72;;;;;;;;;;4941701;28;20039;-67
2022/12/31 01:16:52;;;;;;;40.00;5.30;;;;;;;;;;4941304;28;20726;-68
2022/12/31 01:19:19;;;;;;;44.63;5.10;;;;;;;;;;4941700;28;20031;-67
2022/12/31 01:21:45;;;;;;;38.72;5.40;;;;;;;;;;4941582;28;20530;-67
2022/12/31 01:24:11;;;;;;;36.53;5.57;;;;;;;;;;4924451;28;20034;-68
2022/12/31 01:26:36;;;;;;;38.83;5.18;;;;;;;;;;4941565;28;20039;-67
2022/12/31 01:29:02;;;;;;;43.00;5.90;;;;;;;;;;4941800;28;20562;-67
2022/12/31 01:31:32;;;;;;;36.70;4.55;;;;;;;;;;4924184;28;20394;-69
2022/12/31 01:33:57;;;;;;;47.25;4.78;;;;;;;;;;4941103;28;20434;-67
2022/12/31 01:36:24;;;;;;;42.22;4.88;;;;;;;;;;4941428;28;20418;-68
2022/12/31 01:38:49;;;;;;;44.20;5.90;;;;;;;;;;4941409;28;20030;-69
2022/12/31 01:41:18;;;;;;;43.22;5.30;;;;;;;;;;4941460;28;20049;-69
2022/12/31 01:43:46;;;;;;;41.47;5.38;;;;;;;;;;4940920;28;20898;-68
2022/12/31 01:46:13;;;;;;;41.15;4.65;;;;;;;;;;4940390;28;20062;-68
2022/12/31 01:48:38;;;;;;;42.10;6.25;;;;;;;;;;4941424;28;20106;-67
2022/12/31 01:51:04;;;;;;;39.35;5.40;;;;;;;;;;4940735;28;20058;-69
2022/12/31 01:53:29;;;;;;;48.30;6.30;;;;;;;;;;4937737;28;20043;-68
2022/12/31 01:55:57;;;;;;;40.53;5.05;;;;;;;;;;4921859;28;20525;-68
2022/12/31 01:58:32;;;;;;;50.45;5.65;;;;;;;;;;4920548;28;20074;-68
2022/12/31 02:00:57;;;;;;;35.97;4.75;;;;;;;;;;4922359;28;20035;-68
2022/12/31 02:03:24;;;;;;;48.58;5.35;;;;;;;;;;4922996;28;20046;-67
2022/12/31 02:05:49;;;;;;;38.55;5.35;;;;;;;;;;4921995;28;20438;-68
2022/12/31 02:08:14;;;;;;;37.38;4.05;;;;;;;;;;4927891;28;20050;-68
2022/12/31 02:10:40;;;;;;;40.85;5.60;;;;;;;;;;4938509;28;20038;-68
2022/12/31 02:13:05;;;;;;;45.30;4.88;;;;;;;;;;4940711;28;20337;-68
2022/12/31 02:15:38;;;;;;;45.92;5.45;;;;;;;;;;4940352;28;20043;-68
2022/12/31 02:18:15;;;;;;;42.25;5.18;;;;;;;;;;4940666;28;20118;-67
2022/12/31 02:20:45;;;;;;;39.90;4.32;;;;;;;;;;4940661;28;20278;-67
2022/12/31 02:23:29;;;;;;;40.85;5.03;;;;;;;;;;4940160;28;20058;-68
2022/12/31 02:25:55;;;;;;;38.83;5.20;;;;;;;;;;4923067;28;20582;-69
2022/12/31 02:28:23;;;;;;;38.70;5.72;;;;;;;;;;4941215;28;20166;-68
2022/12/31 02:30:52;;;;;;;43.35;5.50;;;;;;;;;;4940491;28;20512;-67
2022/12/31 02:33:42;;;;;;;47.42;5.50;;;;;;;;;;4922643;28;20031;-69
2022/12/31 02:36:16;;;;;;;30.33;4.95;;;;;;;;;;4940717;28;20122;-68
2022/12/31 02:38:43;;;;;;;31.80;4.60;;;;;;;;;;4940129;28;20267;-67
2022/12/31 02:41:48;;;;;;;35.42;5.15;;;;;;;;;;4939918;28;20039;-70
2022/12/31 02:44:00;;;;;;;35.97;5.30;;;;;;;;;;4939674;28;20038;-67
2022/12/31 02:46:38;;;;;;;37.20;4.60;;;;;;;;;;4919357;28;20138;-68
2022/12/31 02:49:12;;;;;;;41.85;5.55;;;;;;;;;;4920551;28;20039;-68
2022/12/31 02:51:44;;;;;;;35.83;4.57;;;;;;;;;;4924638;28;20255;-68
2022/12/31 02:54:12;;;;;;;29.75;4.60;;;;;;;;;;4903786;28;20034;-68
2022/12/31 02:56:44;;;;;;;35.40;4.43;;;;;;;;;;4920883;28;20059;-68
2022/12/31 03:02:13;;;;;;;27.52;4.25;;;;;;;;;;4921535;28;20031;-67
2022/12/31 03:04:40;;;;;;;38.72;5.32;;;;;;;;;;4919109;28;20407;-67
2022/12/31 03:07:06;;;;;;;33.92;4.78;;;;;;;;;;4928616;28;20510;-68
2022/12/31 03:09:32;;;;;;;41.22;5.82;;;;;;;;;;4940721;28;20031;-68
2022/12/31 03:14:42;;;;;;;33.63;4.85;;;;;;;;;;4940174;28;20035;-67
2022/12/31 03:17:07;;;;;;;40.42;6.00;;;;;;;;;;4922709;28;20038;-67
2022/12/31 03:22:29;;;;;;;33.58;4.90;;;;;;;;;;4942221;28;20065;-68
2022/12/31 03:27:40;;;;;;;44.20;6.22;;;;;;;;;;4943231;28;20046;-67
2022/12/31 03:30:06;;;;;;;52.95;6.70;;;;;;;;;;4943855;28;20039;-69
2022/12/31 03:32:31;;;;;;;35.58;5.20;;;;;;;;;;4943039;28;20038;-69
2022/12/31 03:34:56;;;;;;;42.63;5.88;;;;;;;;;;4943450;28;20436;-69
2022/12/31 03:37:22;;;;;;;44.00;6.15;;;;;;;;;;4943149;28;20442;-69
2022/12/31 03:39:47;;;;;;;42.28;5.85;;;;;;;;;;4925894;28;20042;-69
2022/12/31 03:42:12;;;;;;;37.50;6.25;;;;;;;;;;4942898;28;20039;-68
2022/12/31 03:44:37;;;;;;;48.50;13.50;;;;;;;;;;4943095;28;20109;-68
2022/12/31 03:47:03;;;;;;;71.32;14.13;;;;;;;;;;4970174;28;20154;-69
2022/12/31 03:49:29;;;;;;;58.58;12.15;;;;;;;;;;4943403;28;20389;-72
2022/12/31 03:51:54;;;;;;;46.45;12.20;;;;;;;;;;4942437;28;20061;-72
2022/12/31 03:54:19;;;;;;;56.40;12.30;;;;;;;;;;4943131;28;20667;-72
2022/12/31 03:56:44;;;;;;;62.33;14.00;;;;;;;;;;4942845;28;20038;-72
2022/12/31 03:59:10;;;;;;;53.63;13.80;;;;;;;;;;4925835;28;20427;-72
2022/12/31 04:01:35;;;;;;;62.97;14.38;;;;;;;;;;4943356;28;20322;-71
2022/12/31 04:04:03;;;;;;;50.50;10.80;;;;;;;;;;4942683;28;20034;-71
2022/12/31 04:06:28;;;;;;;43.65;10.50;;;;;;;;;;4992367;28;20022;-71
2022/12/31 04:08:53;;;;;;;36.97;9.70;;;;;;;;;;4942677;28;20023;-71
2022/12/31 04:11:21;;;;;;;44.17;10.35;;;;;;;;;;4925513;28;20608;-72
2022/12/31 04:13:46;;;;;;;43.72;12.35;;;;;;;;;;4943234;28;20031;-71
2022/12/31 04:16:11;;;;;;;41.78;12.82;;;;;;;;;;4943490;28;20155;-72
2022/12/31 04:18:36;;;;;;;45.33;8.68;;;;;;;;;;4924857;28;20038;-72
2022/12/31 04:21:02;;;;;;;38.15;4.97;;;;;;;;;;4942886;28;20027;-70
2022/12/31 04:23:27;;;;;;;34.67;4.68;;;;;;;;;;4941957;28;20119;-71
2022/12/31 04:25:52;;;;;;;28.70;3.75;;;;;;;;;;4942811;28;20434;-71
2022/12/31 04:28:21;;;;;;;39.35;4.47;;;;;;;;;;4924520;28;20080;-72
2022/12/31 04:30:48;;;;;;;28.98;4.13;;;;;;;;;;4942085;28;20034;-72
2022/12/31 04:33:16;;;;;;;26.67;3.80;;;;;;;;;;4924618;28;20188;-72
2022/12/31 04:35:44;;;;;;;26.75;3.40;;;;;;;;;;4942763;28;20340;-71
2022/12/31 04:38:09;;;;;;;38.17;4.32;;;;;;;;;;4942762;28;20026;-71
2022/12/31 04:41:15;;;;;;;25.52;3.55;;;;;;;;;;4924618;28;20023;-71
2022/12/31 04:43:22;;;;;;;27.13;3.65;;;;;;;;;;4942127;28;20065;-69
2022/12/31 04:45:50;;;;;;;32.63;4.32;;;;;;;;;;4941961;28;20422;-69
2022/12/31 04:48:17;;;;;;;31.98;4.18;;;;;;;;;;4925171;28;20027;-71
2022/12/31 04:50:44;;;;;;;30.60;4.43;;;;;;;;;;4941263;28;20038;-71
2022/12/31 04:53:10;;;;;;;27.80;3.50;;;;;;;;;;4941823;28;20718;-71
2022/12/31 04:55:35;;;;;;;30.45;4.05;;;;;;;;;;4924048;28;20053;-70
2022/12/31 04:58:00;;;;;;;31.27;4.80;;;;;;;;;;4924432;28;20446;-69
2022/12/31 05:00:26;;;;;;;29.70;3.85;;;;;;;;;;4939394;28;20342;-70
2022/12/31 05:02:53;;;;;;;20.88;3.72;;;;;;;;;;4941919;28;20027;-69
2022/12/31 05:05:18;;;;;;;19.02;3.92;;;;;;;;;;4940989;28;20027;-71
2022/12/31 05:07:44;;;;;;;19.25;4.45;;;;;;;;;;4924556;28;20722;-70
2022/12/31 05:10:09;;;;;;;19.85;4.30;;;;;;;;;;4923785;28;20031;-70
2022/12/31 05:12:37;;;;;;;28.10;6.05;;;;;;;;;;4942010;28;20070;-71
2022/12/31 05:15:07;;;;;;;20.10;4.30;;;;;;;;;;4941056;28;20047;-71
2022/12/31 05:17:32;;;;;;;22.67;4.93;;;;;;;;;;4892406;28;20050;-69
2022/12/31 05:20:00;;;;;;;16.17;3.53;;;;;;;;;;4924863;28;20046;-68
2022/12/31 05:22:28;;;;;;;15.40;4.25;;;;;;;;;;4941139;28;20108;-67
2022/12/31 05:24:54;;;;;;;19.30;4.72;;;;;;;;;;4923727;28;20142;-68
2022/12/31 05:27:19;;;;;;;16.77;4.50;;;;;;;;;;4924679;28;20103;-68
2022/12/31 05:29:45;;;;;;;20.40;4.78;;;;;;;;;;4924504;28;20039;-67
2022/12/31 05:32:12;;;;;;;17.08;3.75;;;;;;;;;;4941658;28;20055;-68
2022/12/31 05:34:38;;;;;;;13.88;3.67;;;;;;;;;;4923950;28;20494;-68
2022/12/31 05:37:03;;;;;;;15.02;3.58;;;;;;;;;;4923879;28;20055;-67
2022/12/31 05:39:31;;;;;;;14.68;4.07;;;;;;;;;;4941690;28;20031;-68
2022/12/31 05:41:56;;;;;;;15.90;5.38;;;;;;;;;;4941730;28;20038;-70
2022/12/31 05:44:21;;;;;;;15.93;3.70;;;;;;;;;;4923399;28;20042;-69
2022/12/31 05:46:49;;;;;;;15.38;3.67;;;;;;;;;;4920969;28;20130;-69
2022/12/31 05:49:16;;;;;;;24.52;10.10;;;;;;;;;;4889932;28;20155;-70
2022/12/31 05:51:42;;;;;;;28.98;14.57;;;;;;;;;;4904718;28;20043;-69
2022/12/31 05:54:07;;;;;;;27.33;13.80;;;;;;;;;;4903880;28;20138;-67
2022/12/31 05:56:32;;;;;;;34.47;16.58;;;;;;;;;;4922187;28;20097;-67
2022/12/31 05:58:57;;;;;;;32.70;13.75;;;;;;;;;;4904380;28;20042;-68
2022/12/31 06:01:23;;;;;;;31.27;11.43;;;;;;;;;;4922138;28;20079;-70
2022/12/31 06:03:48;;;;;;;24.67;9.88;;;;;;;;;;4926523;28;20042;-71
2022/12/31 06:06:13;;;;;;;33.33;12.32;;;;;;;;;;4941487;28;20046;-69
2022/12/31 06:08:38;;;;;;;31.45;11.05;;;;;;;;;;4940740;28;20173;-68
2022/12/31 06:11:04;;;;;;;23.02;9.20;;;;;;;;;;4923912;28;20031;-69
2022/12/31 06:13:29;;;;;;;30.20;11.25;;;;;;;;;;4940951;28;20045;-68
2022/12/31 06:15:54;;;;;;;33.03;11.65;;;;;;;;;;4941021;28;20057;-69
2022/12/31 06:18:20;;;;;;;30.50;10.88;;;;;;;;;;4924112;28;20795;-68
2022/12/31 06:20:45;;;;;;;30.55;13.50;;;;;;;;;;4940424;28;20031;-73
2022/12/31 06:23:11;;;;;;;32.03;13.88;;;;;;;;;;4924136;28;20039;-72
2022/12/31 06:25:36;;;;;;;30.17;13.05;;;;;;;;;;4940980;28;20035;-71
2022/12/31 06:28:02;;;;;;;24.17;10.80;;;;;;;;;;4941016;28;20039;-70
2022/12/31 06:30:28;;;;;;;24.30;10.98;;;;;;;;;;4940625;28;20058;-70
2022/12/31 06:32:54;;;;;;;18.85;9.75;;;;;;;;;;4940732;28;20039;-69
2022/12/31 06:35:19;;;;;;;14.45;7.60;;;;;;;;;;4938480;28;20035;-69
2022/12/31 06:37:44;;;;;;;17.85;8.68;;;;;;;;;;4940913;28;20042;-69
2022/12/31 06:40:13;;;;;;;11.95;6.90;;;;;;;;;;4939945;28;20161;-67
2022/12/31 06:42:38;;;;;;;24.30;13.25;;;;;;;;;;4924214;28;20050;-68
2022/12/31 06:45:03;;;;;;;26.05;14.30;;;;;;;;;;4938811;28;20616;-67
2022/12/31 06:47:31;;;;;;;28.17;16.42;;;;;;;;;;4925728;28;20101;-70
2022/12/31 06:49:57;;;;;;;26.45;14.48;;;;;;;;;;4922160;28;20046;-72
2022/12/31 06:52:22;;;;;;;26.30;16.73;;;;;;;;;;4921976;28;20058;-70
2022/12/31 06:54:48;;;;;;;33.08;17.42;;;;;;;;;;4918703;28;20111;-71
2022/12/31 06:57:14;;;;;;;29.48;15.02;;;;;;;;;;4921644;28;20039;-69
2022/12/31 06:59:39;;;;;;;21.13;12.07;;;;;;;;;;4919572;28;20043;-74
2022/12/31 07:02:16;;;;;;;29.48;14.40;;;;;;;;;;4931857;28;20030;-72
2022/12/31 07:04:57;;;;;;;25.55;11.43;;;;;;;;;;4940774;28;20027;-71
2022/12/31 07:07:30;;;;;;;34.90;16.08;;;;;;;;;;4940120;28;20393;-72
2022/12/31 07:10:03;;;;;;;17.77;6.75;;;;;;;;;;4938440;28;20216;-73
2022/12/31 07:12:47;;;;;;;12.98;3.30;;;;;;;;;;4939838;28;20043;-72
2022/12/31 07:15:22;;;;;;;13.07;3.50;;;;;;;;;;4939798;28;20248;-73
2022/12/31 07:18:03;;;;;;;15.77;3.42;;;;;;;;;;4939928;28;20043;-74
2022/12/31 07:20:28;;;;;;;18.63;3.60;;;;;;;;;;4941824;28;20111;-75
2022/12/31 07:22:56;;;;;;;13.15;2.70;;;;;;;;;;4941945;28;20209;-73
2022/12/31 07:25:22;;;;;;;17.20;2.83;;;;;;;;;;4907538;28;20051;-72
2022/12/31 07:27:54;;;;;;;18.63;3.30;;;;;;;;;;4941675;28;20440;-72
2022/12/31 07:30:26;;;;;;;22.73;2.97;;;;;;;;;;4942279;28;20255;-74
2022/12/31 07:33:14;;;;;;;23.17;3.33;;;;;;;;;;4924485;28;20085;-73
2022/12/31 07:35:45;;;;;;;29.15;4.60;;;;;;;;;;4941210;28;20038;-73
2022/12/31 07:38:15;;;;;;;25.93;3.90;;;;;;;;;;4922694;28;20281;-73
2022/12/31 07:41:02;;;;;;;32.03;3.72;;;;;;;;;;4944751;28;20054;-74
2022/12/31 07:43:46;;;;;;;30.40;3.88;;;;;;;;;;4941779;28;20125;-73
2022/12/31 07:46:11;;;;;;;29.45;4.18;;;;;;;;;;4925753;28;20070;-73
2022/12/31 07:48:39;;;;;;;43.30;4.55;;;;;;;;;;4943852;28;20509;-71
2022/12/31 07:51:04;;;;;;;35.22;4.20;;;;;;;;;;4938705;28;20058;-72
2022/12/31 07:53:29;;;;;;;31.50;4.47;;;;;;;;;;4939193;28;20031;-72
2022/12/31 07:55:56;;;;;;;32.63;3.95;;;;;;;;;;4931575;28;20039;-72
2022/12/31 07:58:48;;;;;;;28.48;4.53;;;;;;;;;;4942433;28;20087;-72
2022/12/31 08:01:31;;;;;;;33.65;3.95;;;;;;;;;;4942802;28;20043;-73
2022/12/31 08:04:31;;;;;;;34.25;4.05;;;;;;;;;;4906017;28;20031;-70
2022/12/31 08:06:59;;;;;;;;;;;;;;;;;;4958710;28;20411;-73
2022/12/31 08:09:30;;;;;;;27.90;3.77;;;;;;;;;;4941578;28;19910;-72
2022/12/31 08:12:00;;;;;;;25.63;3.78;;;;;;;;;;4942940;28;20346;-73
2022/12/31 08:14:27;;;;;;;23.70;4.10;;;;;;;;;;4942436;28;20163;-72
2022/12/31 08:16:55;;;;;;;22.13;3.47;;;;;;;;;;4942717;28;20051;-72
2022/12/31 08:19:30;;;;;;;29.58;3.55;;;;;;;;;;4943620;28;20070;-72
2022/12/31 08:22:05;;;;;;;28.40;3.88;;;;;;;;;;4943281;28;20609;-74
2022/12/31 08:24:34;;;;;;;21.20;3.33;;;;;;;;;;4943903;28;20138;-72
2022/12/31 08:26:59;;;;;;;25.55;3.50;;;;;;;;;;4942014;28;20137;-72
2022/12/31 08:29:33;;;;;;;35.85;4.50;;;;;;;;;;4942373;28;20043;-73
2022/12/31 08:32:16;;;;;;;39.15;4.68;;;;;;;;;;4943671;28;20279;-73
2022/12/31 08:35:04;;;;;;;35.47;4.70;;;;;;;;;;4943713;28;20339;-72
2022/12/31 08:37:41;;;;;;;28.70;3.97;;;;;;;;;;4941374;28;20114;-72
2022/12/31 08:40:18;;;;;;;32.72;4.45;;;;;;;;;;4943457;28;20049;-72
2022/12/31 08:43:05;;;;;;;30.15;4.43;;;;;;;;;;4942865;28;20055;-70
2022/12/31 08:45:35;;;;;;;26.45;4.30;;;;;;;;;;4942996;28;20489;-71
2022/12/31 08:48:03;;;;;;;41.35;4.90;;;;;;;;;;4921629;28;20202;-72
2022/12/31 08:50:28;;;;;;;46.50;5.85;;;;;;;;;;4989426;28;20088;-72
2022/12/31 08:52:54;;;;;;;53.83;7.20;;;;;;;;;;4923321;28;20035;-72
2022/12/31 08:55:20;;;;;;;47.72;6.38;;;;;;;;;;4931416;28;20134;-70
2022/12/31 08:57:52;;;;;;;51.05;7.20;;;;;;;;;;4921798;28;20039;-74
2022/12/31 09:00:18;;;;;;;53.38;6.15;;;;;;;;;;4951698;28;20057;-72
2022/12/31 09:03:02;;;;;;;59.38;6.68;;;;;;;;;;4932306;28;20031;-72
2022/12/31 09:05:46;;;;;;;71.50;7.43;;;;;;;;;;4949682;28;20037;-74
2022/12/31 09:08:11;;;;;;;49.13;7.05;;;;;;;;;;4948746;28;20080;-73
2022/12/31 09:11:06;;;;;;;46.33;7.05;;;;;;;;;;4945948;28;20043;-73
2022/12/31 09:13:48;;;;;;;46.97;7.00;;;;;;;;;;4960365;28;20031;-73
2022/12/31 09:16:19;;;;;;;53.22;6.95;;;;;;;;;;4931905;28;20053;-71
2022/12/31 09:18:44;;;;;;;59.53;8.48;;;;;;;;;;4948435;28;20034;-72
2022/12/31 09:21:12;;;;;;;65.65;7.28;;;;;;;;;;4948388;28;20045;-71
2022/12/31 09:23:38;;;;;;;58.47;8.27;;;;;;;;;;4926740;28;20062;-74
2022/12/31 09:26:14;;;;;;;63.47;8.55;;;;;;;;;;4947811;28;20293;-73
2022/12/31 09:28:46;;;;;;;59.25;8.00;;;;;;;;;;4933015;28;20141;-72
2022/12/31 09:31:16;;;;;;;55.97;8.00;;;;;;;;;;4946797;28;20031;-72
2022/12/31 09:33:52;;;;;;;65.28;7.97;;;;;;;;;;4927701;28;20507;-74
2022/12/31 09:36:40;;;;;;;69.68;9.27;;;;;;;;;;4942755;28;20543;-70
2022/12/31 09:39:21;;;;;;;63.65;9.23;;;;;;;;;;4944913;28;20058;-72
2022/12/31 09:41:47;;;;;;;55.67;7.93;;;;;;;;;;4942470;28;20183;-71
2022/12/31 09:44:31;;;;;;;60.50;8.00;;;;;;;;;;4949157;28;20285;-71
2022/12/31 09:46:56;;;;;;;60.55;8.73;;;;;;;;;;4942839;28;20038;-72
2022/12/31 09:49:34;;;;;;;55.95;8.43;;;;;;;;;;4944142;28;20203;-71
2022/12/31 09:52:22;;;;;;;66.03;11.00;;;;;;;;;;4943537;28;20030;-71
2022/12/31 09:55:06;;;;;;;63.58;8.82;;;;;;;;;;4943026;28;20149;-72
2022/12/31 09:57:40;;;;;;;66.60;9.02;;;;;;;;;;4944203;28;20484;-72
2022/12/31 10:00:11;;;;;;;57.35;8.40;;;;;;;;;;4945326;28;20049;-72
2022/12/31 10:02:57;;;;;;;47.40;7.80;;;;;;;;;;4946172;28;20338;-74
2022/12/31 10:05:22;;;;;;;50.88;6.93;;;;;;;;;;4929903;28;20023;-72
2022/12/31 10:07:57;;;;;;;49.85;7.18;;;;;;;;;;4928423;28;20305;-72
2022/12/31 10:10:24;;;;;;;44.33;6.93;;;;;;;;;;4944666;28;20153;-72
2022/12/31 10:13:01;;;;;;;51.67;8.20;;;;;;;;;;4945005;28;20108;-71
2022/12/31 10:15:53;;;;;;;49.92;7.22;;;;;;;;;;4928366;28;20190;-73
2022/12/31 10:18:39;;;;;;;50.40;6.88;;;;;;;;;;4959381;28;20068;-70
2022/12/31 10:21:08;;;;;;;62.65;6.93;;;;;;;;;;4946353;28;20254;-71
2022/12/31 10:23:54;;;;;;;49.83;7.45;;;;;;;;;;4943696;28;20092;-71
2022/12/31 10:26:38;;;;;;;74.22;9.98;;;;;;;;;;4946383;28;20077;-71
2022/12/31 10:29:22;;;;;;;74.65;9.50;;;;;;;;;;4928323;28;20039;-71
2022/12/31 10:32:06;;;;;;;50.28;7.38;;;;;;;;;;4926990;28;20642;-74
2022/12/31 10:34:34;;;;;;;63.30;8.93;;;;;;;;;;4943934;28;20039;-72
2022/12/31 10:37:09;;;;;;;65.40;8.25;;;;;;;;;;4943866;28;20069;-72
2022/12/31 10:39:46;;;;;;;66.78;8.50;;;;;;;;;;4945346;28;20038;-72
2022/12/31 10:42:18;;;;;;;55.40;8.07;;;;;;;;;;4927425;28;20181;-72
2022/12/31 10:44:55;;;;;;;55.10;8.32;;;;;;;;;;4943320;28;20345;-72
2022/12/31 10:47:39;;;;;;;58.78;8.05;;;;;;;;;;4942540;28;20281;-74
2022/12/31 10:50:23;;;;;;;62.95;7.57;;;;;;;;;;4942052;28;20100;-77
2022/12/31 10:53:07;;;;;;;62.13;8.50;;;;;;;;;;4942745;28;20464;-75
2022/12/31 10:55:53;;;;;;;65.53;8.75;;;;;;;;;;4926420;28;20042;-76
2022/12/31 10:58:37;;;;;;;56.20;8.07;;;;;;;;;;4941758;28;20034;-76
2022/12/31 11:01:08;;;;;;;47.60;7.13;;;;;;;;;;4940555;28;20038;-75
2022/12/31 11:03:48;;;;;;;60.40;7.40;;;;;;;;;;4941320;28;20420;-75
2022/12/31 11:06:25;;;;;;;53.63;6.72;;;;;;;;;;4942070;28;20037;-73
2022/12/31 11:09:09;;;;;;;42.17;5.47;;;;;;;;;;4941464;28;20128;-74
2022/12/31 11:11:35;;;;;;;35.15;5.00;;;;;;;;;;4940167;28;20748;-74
2022/12/31 11:14:22;;;;;;;39.53;5.97;;;;;;;;;;4941003;28;20039;-74
2022/12/31 11:17:01;;;;;;;47.50;6.30;;;;;;;;;;4940695;28;20446;-74
2022/12/31 11:19:38;;;;;;;42.92;6.57;;;;;;;;;;4939450;28;20328;-74
2022/12/31 11:22:24;;;;;;;43.22;6.88;;;;;;;;;;4941992;28;20038;-74
2022/12/31 11:25:05;;;;;;;54.17;7.53;;;;;;;;;;4943224;28;20096;-73
2022/12/31 11:27:39;;;;;;;62.30;8.52;;;;;;;;;;4946335;28;20545;-74
2022/12/31 11:30:17;;;;;;;46.33;7.80;;;;;;;;;;4944379;28;20491;-73
2022/12/31 11:32:47;;;;;;;57.83;9.77;;;;;;;;;;4942655;28;20562;-77
2022/12/31 11:35:21;;;;;;;55.95;6.88;;;;;;;;;;4943107;28;20573;-73
2022/12/31 11:37:46;;;;;;;48.25;7.20;;;;;;;;;;4946290;28;20059;-73
2022/12/31 11:40:30;;;;;;;38.97;6.05;;;;;;;;;;4948003;28;20724;-74
2022/12/31 11:43:14;;;;;;;41.13;7.78;;;;;;;;;;4930908;28;20496;-75
2022/12/31 11:45:39;;;;;;;37.40;6.53;;;;;;;;;;4946722;28;20324;-73
2022/12/31 11:48:14;;;;;;;49.50;8.40;;;;;;;;;;4948644;28;20084;-71
2022/12/31 11:50:56;;;;;;;52.47;8.20;;;;;;;;;;4944386;28;20540;-74
2022/12/31 11:53:43;;;;;;;59.60;8.45;;;;;;;;;;4948147;28;20114;-72
2022/12/31 11:56:14;;;;;;;58.10;8.38;;;;;;;;;;4944867;28;20091;-74
2022/12/31 11:58:50;;;;;;;53.28;8.18;;;;;;;;;;4945061;28;20046;-74
2022/12/31 12:01:18;;;;;;;60.67;10.15;;;;;;;;;;4923963;28;20034;-72
2022/12/31 12:03:44;;;;;;;77.38;9.80;;;;;;;;;;4943559;28;20038;-71
2022/12/31 12:06:11;;;;;;;57.90;8.10;;;;;;;;;;4925250;28;20038;-72
2022/12/31 12:08:36;;;;;;;66.57;9.32;;;;;;;;;;4942836;28;20128;-71
2022/12/31 12:11:05;;;;;;;80.07;8.80;;;;;;;;;;4943479;28;20066;-69
2022/12/31 12:13:32;;;;;;;66.75;10.25;;;;;;;;;;4940962;28;20654;-68
2022/12/31 12:16:00;;;;;;;75.35;10.68;;;;;;;;;;4941667;28;20054;-69
2022/12/31 12:18:27;;;;;;;80.18;11.07;;;;;;;;;;4942567;28;20659;-70
2022/12/31 12:21:09;;;;;;;77.93;10.35;;;;;;;;;;4942539;28;20043;-69
2022/12/31 12:23:34;;;;;;;84.32;10.32;;;;;;;;;;4939280;28;20042;-71
2022/12/31 12:26:01;;;;;;;85.28;11.25;;;;;;;;;;4944251;28;20039;-69
2022/12/31 12:28:27;;;;;;;76.93;11.07;;;;;;;;;;4925234;28;20651;-69
2022/12/31 12:30:58;;;;;;;76.93;11.25;;;;;;;;;;4942949;28;20745;-68
2022/12/31 12:33:28;;;;;;;87.38;11.70;;;;;;;;;;4942086;28;20501;-68
2022/12/31 12:36:05;;;;;;;90.90;11.35;;;;;;;;;;4942587;28;20996;-71
2022/12/31 12:38:30;;;;;;;86.38;9.88;;;;;;;;;;4925617;28;20544;-68
2022/12/31 12:40:57;;;;;;;55.28;9.40;;;;;;;;;;4942731;28;20168;-67
2022/12/31 12:43:26;;;;;;;64.13;8.60;;;;;;;;;;4924713;28;20035;-67
2022/12/31 12:46:07;;;;;;;67.03;8.90;;;;;;;;;;4941970;28;20120;-67
2022/12/31 12:48:39;;;;;;;71.20;7.85;;;;;;;;;;4940746;28;20034;-68
2022/12/31 12:51:26;;;;;;;63.15;9.25;;;;;;;;;;4941425;28;20039;-67
2022/12/31 12:54:03;;;;;;;63.65;8.45;;;;;;;;;;4941175;28;20038;-68
2022/12/31 12:56:37;;;;;;;53.97;8.52;;;;;;;;;;4924447;28;20065;-67
2022/12/31 12:59:21;;;;;;;61.20;7.82;;;;;;;;;;4941599;28;20048;-67
2022/12/31 13:01:49;;;;;;;63.50;9.77;;;;;;;;;;4924449;28;20044;-67
2022/12/31 13:04:15;;;;;;;85.32;9.73;;;;;;;;;;4941408;28;20489;-68
2022/12/31 13:07:00;;;;;;;57.85;9.40;;;;;;;;;;4924821;28;20092;-69
2022/12/31 13:09:43;;;;;;;84.15;11.15;;;;;;;;;;4941708;28;20042;-67
2022/12/31 13:12:27;;;;;;;75.55;9.85;;;;;;;;;;4923900;28;20576;-68
2022/12/31 13:15:13;;;;;;;79.13;10.65;;;;;;;;;;4941425;28;20042;-67
2022/12/31 13:17:56;;;;;;;82.95;11.35;;;;;;;;;;4941771;28;20524;-68
2022/12/31 13:20:30;;;;;;;92.65;12.02;;;;;;;;;;4941299;28;20073;-67
2022/12/31 13:23:20;;;;;;;86.45;11.85;;;;;;;;;;4942171;28;20795;-67
2022/12/31 13:25:54;;;;;;;72.65;10.05;;;;;;;;;;4941716;28;20533;-68
2022/12/31 13:28:24;;;;;;;73.90;9.70;;;;;;;;;;4941669;28;20413;-68
2022/12/31 13:30:52;;;;;;;79.57;9.15;;;;;;;;;;4941394;28;20030;-68
2022/12/31 13:33:25;;;;;;;83.28;9.27;;;;;;;;;;4941603;28;20045;-67
2022/12/31 13:35:58;;;;;;;87.60;10.63;;;;;;;;;;4941221;28;20051;-68
2022/12/31 13:38:35;;;;;;;80.13;8.80;;;;;;;;;;4941432;28;20059;-68
2022/12/31 13:41:04;;;;;;;67.50;8.73;;;;;;;;;;4930624;28;20027;-69
2022/12/31 13:43:38;;;;;;;57.50;9.38;;;;;;;;;;4941807;28;20509;-67
2022/12/31 13:46:20;;;;;;;69.93;8.63;;;;;;;;;;4940459;28;20038;-67
2022/12/31 13:48:51;;;;;;;87.28;10.50;;;;;;;;;;4939120;28;20059;-71
2022/12/31 13:51:23;;;;;;;81.20;10.45;;;;;;;;;;4924062;28;20031;-70
2022/12/31 13:54:02;;;;;;;88.63;10.32;;;;;;;;;;4911458;28;20033;-69
2022/12/31 13:56:30;;;;;;;79.15;10.95;;;;;;;;;;4939471;28;20351;-68
2022/12/31 13:59:21;;;;;;;79.60;10.48;;;;;;;;;;4941322;28;20130;-68
2022/12/31 14:01:53;;;;;;;61.80;8.95;;;;;;;;;;4943773;28;20840;-69
2022/12/31 14:04:25;;;;;;;74.47;9.98;;;;;;;;;;4942132;28;20041;-67
2022/12/31 14:07:01;;;;;;;81.40;11.05;;;;;;;;;;4922295;28;20576;-69
2022/12/31 14:09:29;;;;;;;65.47;9.50;;;;;;;;;;4938673;28;20450;-71
2022/12/31 14:12:13;;;;;;;60.55;7.72;;;;;;;;;;4941983;28;20255;-70
2022/12/31 14:14:59;;;;;;;57.80;7.18;;;;;;;;;;4941606;28;20035;-70
2022/12/31 14:17:24;;;;;;;55.38;7.03;;;;;;;;;;4941719;28;20508;-71
2022/12/31 14:20:08;;;;;;;50.72;8.05;;;;;;;;;;4941616;28;20027;-70
2022/12/31 14:22:37;;;;;;;58.28;7.72;;;;;;;;;;4940256;28;20436;-72
2022/12/31 14:25:04;;;;;;;41.08;7.32;;;;;;;;;;4941988;28;20031;-73
2022/12/31 14:27:35;;;;;;;61.92;8.40;;;;;;;;;;4924490;28;20130;-69
2022/12/31 14:30:03;;;;;;;64.07;8.10;;;;;;;;;;4943119;28;20030;-71
2022/12/31 14:32:34;;;;;;;53.47;7.65;;;;;;;;;;4943798;28;20043;-74
2022/12/31 14:35:18;;;;;;;48.05;7.25;;;;;;;;;;4942582;28;20031;-71
2022/12/31 14:37:54;;;;;;;49.17;7.80;;;;;;;;;;4941047;28;20031;-74
2022/12/31 14:40:41;;;;;;;60.50;8.32;;;;;;;;;;4948582;28;20092;-73
2022/12/31 14:43:21;;;;;;;52.85;8.50;;;;;;;;;;4942286;28;20349;-71
2022/12/31 14:46:09;;;;;;;51.97;8.65;;;;;;;;;;4940363;28;20038;-69
2022/12/31 14:48:39;;;;;;;73.05;9.43;;;;;;;;;;4939289;28;20480;-72
2022/12/31 14:51:05;;;;;;;66.07;9.07;;;;;;;;;;4940800;28;20027;-75
2022/12/31 14:53:33;;;;;;;63.88;8.45;;;;;;;;;;4946890;28;20397;-72
2022/12/31 14:56:00;;;;;;;59.35;7.93;;;;;;;;;;4908296;28;20054;-71
2022/12/31 14:58:33;;;;;;;59.55;7.65;;;;;;;;;;4942011;28;20043;-72
2022/12/31 15:01:21;;;;;;;59.38;8.93;;;;;;;;;;4942779;28;20079;-75
2022/12/31 15:03:46;;;;;;;54.08;7.95;;;;;;;;;;4939838;28;20481;-72